| Date | Time | Temp. (oF) | Dew Point (oF) | Rel. Hum. (%) | Press. (in.) | Wind Dir. | Wind Speed (mph) | Hourly Rainfall (in.) |
|
|---|---|---|---|---|---|---|---|---|---|
| 1 | 10/06 | 00:00 | 47 | 43 | 87 | 30.05 | NE | 0 | 0.00 |
| 2 | 10/05 | 23:00 | 48 | 44 | 86 | 30.04 | SE | 0 | 0.00 |
| 3 | 10/05 | 22:00 | 50 | 44 | 81 | 30.04 | SE | 0 | 0.00 |
| 4 | 10/05 | 21:00 | 52 | 45 | 77 | 30.04 | SE | 0 | 0.00 |
| 5 | 10/05 | 20:00 | 55 | 44 | 69 | 30.03 | ENE | 0 | 0.00 |
| 6 | 10/05 | 19:00 | 59 | 45 | 60 | 30.02 | E | 0 | 0.00 |
| 7 | 10/05 | 18:00 | 63 | 44 | 51 | 30.01 | ESE | 2 | 0.00 |
| 8 | 10/05 | 17:00 | 66 | 45 | 48 | 30.00 | E | 4 | 0.00 |
| 9 | 10/05 | 16:00 | 65 | 45 | 49 | 30.02 | NNW | 11 | 0.00 |
| 10 | 10/05 | 15:00 | 65 | 46 | 52 | 30.04 | NE | 4 | 0.00 |
| 11 | 10/05 | 14:00 | 63 | 45 | 53 | 30.06 | WNW | 3 | 0.00 |
| 12 | 10/05 | 13:00 | 61 | 45 | 56 | 30.10 | ENE | 4 | 0.00 |
| 13 | 10/05 | 12:00 | 59 | 45 | 61 | 30.12 | E | 1 | 0.00 |
| 14 | 10/05 | 11:00 | 56 | 44 | 65 | 30.13 | NE | 4 | 0.00 |
| 15 | 10/05 | 10:00 | 54 | 45 | 74 | 30.14 | ESE | 10 | 0.00 |
| 16 | 10/05 | 09:00 | 50 | 42 | 76 | 30.14 | NE | 7 | 0.00 |
| 17 | 10/05 | 08:00 | 45 | 41 | 87 | 30.14 | ESE | 0 | 0.00 |
| 18 | 10/05 | 07:00 | 45 | 41 | 86 | 30.13 | NE | 5 | 0.00 |
| 19 | 10/05 | 06:00 | 45 | 41 | 86 | 30.13 | ENE | 1 | 0.00 |
| 20 | 10/05 | 05:00 | 46 | 41 | 84 | 30.13 | E | 0 | 0.00 |
| 21 | 10/05 | 04:00 | 48 | 42 | 81 | 30.12 | NNW | 0 | 0.00 |
| 22 | 10/05 | 03:00 | 50 | 43 | 79 | 30.12 | ENE | 2 | 0.00 |
| 23 | 10/05 | 02:00 | 51 | 45 | 80 | 30.12 | ENE | 3 | 0.00 |
| 24 | 10/05 | 01:00 | 50 | 45 | 83 | 30.13 | ENE | 4 | 0.00 |